Airfield :
LOGIN :

Register | Disclaimer

   EN    FR    IT 

 










Legend :    VFR   Marginal VFR   IFR   Intensive IFR   Very Intensive IFR
Visi :
Ceiling :
>= 8 km
>= 3000ft
5 to 8 km
1000 to 3000 ft
1500m to 5 km
500 to 1000 ft
800 to 1500m
200 to 500 ft
< 800m
< 200 ft
Symbols :   Thunderstorms  Fog  Heavy snow  Heavy precipitations  Wind > 20 kt
SIGMETs :     Misc.  Thunderstorms  Icing  Turbulence  Mountain Waves  Volcanic Ashes







- Airport Elevation : 1367 ft
- IATA code : FDH


EDNY - Friedrichshafen

CURRENT METAR :
  • 200650Z 21004KT 170V240 CAVOK 20/15 Q1015

EXPIRED METARs :
  • 200620Z VRB02KT 9999 FEW043 18/15 Q1015
  • 200550Z 08003KT 050V110 9999 FEW042 17/16 Q1015
  • 200520Z VRB02KT 9999 -SHRA FEW036 SCT074 BKN088CB 16/15 Q1015
  • 200450Z 00000KT CAVOK 16/15 Q1015
  • 200420Z 00000KT CAVOK 15/15 Q1014

TAF TAF EDNY
Valid from the 20 at 06:00 until the 21 at 06:00 UTC


200500Z 2006/2106 VRB03KT 9999 FEW040
BECMG 2007/2009 23005KT
PROB40
TEMPO 2010/2017 30020G30KT TSRA BKN020CB
BECMG 2018/2020 VRB03KT
No reported NOTAMs for that airfield.



MET'MAP, your aeronautical weather chart ! - Copyright ORBIFLY December 2007 - Disclaimer

ORBIFLY MET'MAP TEAM :

Programming & Development : Alexandra Zaïnal
Concept & Development : Baudouin d'Aumeries
Co-Development & Prog : Marc-Olivier Méhu
Technical & hardware support : Manuel Goepfert

Contact : metmap@orbifly.com




SOURCES & CREDITS :

   NOAA